Time;durP1;ratioP1;P1;durP2;ratioP2;P2;SDS_P1;SDS_P2;PMS_P1;PMS_P2;Temp;Humidity;BMP_temperature;BMP_pressure;BME280_temperature;BME280_humidity;BME280_pressure;Samples;Min_cycle;Max_cycle;Signal;HPM_P1;HPM_P2
2023/02/09 00:01:33;;;;;;;80.70;38.90;;;;;;;-6.70;53.77;103326.66;108110;1254;61081;-72
2023/02/09 00:04:01;;;;;;;80.70;38.20;;;;;;;-6.69;53.86;103321.55;107987;1254;60367;-72
2023/02/09 00:06:29;;;;;;;76.80;39.40;;;;;;;-6.66;53.86;103316.39;107953;1254;74725;-71
2023/02/09 00:08:57;;;;;;;79.20;38.60;;;;;;;-6.69;53.91;103316.88;108069;1254;72940;-72
2023/02/09 00:14:15;;;;;;;70.40;34.70;;;;;;;-6.71;53.74;103314.40;108053;1254;62409;-71
2023/02/09 00:16:44;;;;;;;74.10;34.00;;;;;;;-6.75;53.68;103317.55;108140;1254;60411;-70
2023/02/09 00:19:12;;;;;;;65.60;31.40;;;;;;;-6.80;53.58;103311.91;108045;1254;74165;-72
2023/02/09 00:21:39;;;;;;;63.70;29.60;;;;;;;-6.83;53.70;103315.52;108099;1254;72870;-72
2023/02/09 00:24:06;;;;;;;59.20;29.70;;;;;;;-6.84;53.73;103316.42;108038;1258;73243;-73
2023/02/09 00:26:33;;;;;;;54.80;28.50;;;;;;;-6.87;53.42;103316.91;108058;1254;60626;-71
2023/02/09 00:29:00;;;;;;;59.30;28.10;;;;;;;-6.96;53.48;103316.64;108060;1254;60361;-72
2023/02/09 00:31:27;;;;;;;60.00;28.10;;;;;;;-7.02;53.59;103310.90;108102;1254;73109;-71
2023/02/09 00:33:54;;;;;;;51.60;24.70;;;;;;;-7.05;53.42;103316.56;108060;1254;73742;-71
2023/02/09 00:36:21;;;;;;;47.90;23.30;;;;;;;-7.10;53.53;103312.84;108030;1254;73112;-71
2023/02/09 00:38:50;;;;;;;46.40;22.60;;;;;;;-7.15;53.65;103310.81;108090;1254;60755;-71
2023/02/09 00:41:17;;;;;;;43.70;21.80;;;;;;;-7.18;53.69;103310.46;108031;1254;60444;-73
2023/02/09 00:43:45;;;;;;;43.70;21.00;;;;;;;-7.21;53.54;103307.50;107947;1254;73918;-73
2023/02/09 00:46:13;;;;;;;44.50;21.10;;;;;;;-7.33;53.50;103305.61;107995;1254;72356;-72
2023/02/09 00:48:41;;;;;;;42.30;21.60;;;;;;;-7.42;53.64;103302.06;107984;1254;72453;-72
2023/02/09 00:51:08;;;;;;;43.10;22.10;;;;;;;-7.57;53.51;103300.33;107943;1254;61037;-73
2023/02/09 00:53:35;;;;;;;45.80;23.50;;;;;;;-7.76;53.51;103294.12;107997;1254;60408;-72
2023/02/09 00:56:02;;;;;;;48.30;23.80;;;;;;;-7.95;53.63;103286.35;107963;1254;73822;-72
2023/02/09 00:58:29;;;;;;;51.10;24.50;;;;;;;-8.09;54.07;103283.15;107989;1254;72043;-72
2023/02/09 01:00:56;;;;;;;50.20;24.50;;;;;;;-8.19;54.19;103285.67;107959;1254;73725;-73
2023/02/09 01:03:23;;;;;;;51.10;25.20;;;;;;;-8.27;54.32;103289.30;108060;1254;61546;-71
2023/02/09 01:05:49;;;;;;;55.70;26.80;;;;;;;-8.32;54.66;103285.35;108026;1254;61312;-70
2023/02/09 01:08:17;;;;;;;48.30;24.20;;;;;;;-8.32;54.43;103285.37;108041;1254;74975;-71
2023/02/09 01:10:45;;;;;;;48.70;25.20;;;;;;;-8.34;54.73;103289.96;108030;1259;73824;-72
2023/02/09 01:13:14;;;;;;;54.30;25.50;;;;;;;-8.36;54.77;103287.60;107982;1255;72363;-72
2023/02/09 01:15:41;;;;;;;52.60;26.60;;;;;;;-8.33;55.18;103288.15;108074;1258;63085;-72
2023/02/09 01:18:08;;;;;;;55.10;25.80;;;;;;;-8.30;54.83;103283.89;108043;1254;60925;-71
2023/02/09 01:20:35;;;;;;;51.90;26.00;;;;;;;-8.25;55.10;103282.33;108072;1254;74038;-72
2023/02/09 01:23:03;;;;;;;54.90;25.50;;;;;;;-8.22;55.07;103280.27;107981;1254;73984;-72
2023/02/09 01:25:30;;;;;;;52.90;24.10;;;;;;;-8.16;54.81;103278.80;107998;1254;72744;-71
2023/02/09 01:27:58;;;;;;;52.90;23.20;;;;;;;-8.16;55.06;103275.35;108023;1254;61214;-72
2023/02/09 01:30:25;;;;;;;51.90;22.70;;;;;;;-8.18;55.20;103272.84;108037;1254;60418;-72
2023/02/09 01:32:55;;;;;;;46.90;22.70;;;;;;;-8.16;54.92;103265.67;107986;1254;72950;-72
2023/02/09 01:35:22;;;;;;;52.80;23.90;;;;;;;-8.15;54.90;103265.79;108057;1254;72872;-72
2023/02/09 01:37:49;;;;;;;48.80;23.30;;;;;;;-8.15;54.82;103266.48;108060;1254;70629;-72
2023/02/09 01:40:16;;;;;;;51.70;23.60;;;;;;;-8.14;55.06;103266.77;107992;1254;62807;-71
2023/02/09 01:42:43;;;;;;;49.00;22.70;;;;;;;-8.12;55.24;103259.23;108082;1254;60437;-72
2023/02/09 01:45:23;;;;;;;49.20;24.10;;;;;;;-8.06;55.05;103257.59;108059;1257;74047;-71
2023/02/09 01:47:55;;;;;;;47.10;23.40;;;;;;;-8.04;55.02;103258.17;107892;1258;71758;-71
2023/02/09 01:50:28;;;;;;;54.10;25.00;;;;;;;-8.02;55.07;103258.98;107869;1254;74042;-71
2023/02/09 01:52:56;;;;;;;53.00;27.10;;;;;;;-7.99;55.04;103261.25;107955;1254;62084;-72
2023/02/09 01:55:25;;;;;;;56.60;27.00;;;;;;;-7.95;54.90;103254.85;108050;1254;60321;-71
2023/02/09 01:58:13;;;;;;;61.90;27.90;;;;;;;-7.87;55.13;103253.27;108049;1254;73104;-71
2023/02/09 02:00:40;;;;;;;56.50;26.60;;;;;;;-7.79;55.09;103247.19;108067;1254;73752;-72
2023/02/09 02:03:10;;;;;;;52.20;25.50;;;;;;;-7.76;55.13;103238.59;107977;1254;73816;-72
2023/02/09 02:05:40;;;;;;;49.90;23.90;;;;;;;-7.73;55.08;103232.41;108056;1254;62078;-72
2023/02/09 02:08:17;;;;;;;54.90;25.60;;;;;;;-7.75;54.69;103233.18;108089;1254;61261;-71
2023/02/09 02:10:43;;;;;;;51.00;25.70;;;;;;;-7.79;54.86;103232.50;108066;1254;73402;-71
2023/02/09 02:13:11;;;;;;;54.70;26.10;;;;;;;-7.83;54.85;103236.65;108064;1253;73589;-72
2023/02/09 02:15:56;;;;;;;54.20;26.70;;;;;;;-7.87;55.03;103236.64;108041;1254;72860;-71
2023/02/09 02:19:14;;;;;;;52.30;24.90;;;;;;;-7.84;54.84;103231.48;108092;1254;60883;-72
2023/02/09 02:21:55;;;;;;;50.60;23.90;;;;;;;-7.84;54.95;103236.52;107943;1254;60905;-72
2023/02/09 02:25:00;;;;;;;58.30;26.50;;;;;;;-7.88;54.51;103245.00;108051;1254;74671;-72
2023/02/09 02:27:35;;;;;;;55.20;26.10;;;;;;;-7.89;54.64;103244.87;108108;1254;74022;-72
2023/02/09 02:30:34;;;;;;;51.70;25.60;;;;;;;-7.86;54.58;103247.13;108027;1254;72060;-70
2023/02/09 02:33:25;;;;;;;51.00;25.70;;;;;;;-7.82;54.76;103246.30;107998;1253;60792;-72
2023/02/09 02:36:00;;;;;;;;;;;;;;;-7.84;54.39;103249.48;108094;1254;60310;-72
2023/02/09 02:38:37;;;;;;;51.10;23.80;;;;;;;-7.85;54.47;103241.77;108062;1254;72949;-72
2023/02/09 02:41:16;;;;;;;52.40;25.90;;;;;;;-7.88;54.66;103242.08;108078;1254;72364;-72
2023/02/09 02:43:58;;;;;;;50.00;25.90;;;;;;;-7.89;54.26;103240.05;108019;1254;70738;-72
2023/02/09 02:46:40;;;;;;;60.80;27.50;;;;;;;-7.87;54.42;103232.55;108051;1254;62090;-73
2023/02/09 02:49:13;;;;;;;53.40;25.60;;;;;;;-7.85;54.42;103231.55;108053;1254;59573;-72
2023/02/09 02:51:42;;;;;;;58.90;28.00;;;;;;;-7.84;54.36;103227.67;108026;1257;75010;-71
2023/02/09 02:54:19;;;;;;;57.40;27.80;;;;;;;-7.77;54.30;103229.14;108049;1254;73324;-72
2023/02/09 02:56:50;;;;;;;59.90;28.60;;;;;;;-7.70;54.45;103233.30;108065;1254;71722;-72
2023/02/09 02:59:20;;;;;;;59.60;28.10;;;;;;;-7.69;54.49;103234.80;108014;1254;62452;-71
2023/02/09 03:02:21;;;;;;;56.40;27.30;;;;;;;-7.72;54.43;103232.70;107967;1254;59796;-71
2023/02/09 03:04:51;;;;;;;61.40;27.30;;;;;;;-7.76;54.18;103231.33;108042;1254;74012;-72
2023/02/09 03:07:18;;;;;;;54.80;26.60;;;;;;;-7.77;54.27;103230.68;108162;1254;73175;-71
2023/02/09 03:09:53;;;;;;;58.10;27.60;;;;;;;-7.78;54.30;103232.80;108080;1254;71569;-72
2023/02/09 03:12:46;;;;;;;59.30;27.40;;;;;;;-7.77;54.34;103228.94;108080;1254;61616;-71
2023/02/09 03:15:31;;;;;;;53.10;25.90;;;;;;;-7.75;54.02;103229.88;108002;1258;59418;-72
2023/02/09 03:17:57;;;;;;;57.10;26.70;;;;;;;-7.75;54.12;103228.52;108057;1254;74327;-73
2023/02/09 03:20:41;;;;;;;61.10;27.40;;;;;;;-7.78;54.01;103223.11;108077;1254;71352;-71
2023/02/09 03:23:14;;;;;;;55.30;26.90;;;;;;;-7.78;53.91;103216.89;108061;1254;72414;-73
2023/02/09 03:25:43;;;;;;;54.90;26.10;;;;;;;-7.73;54.23;103214.24;108083;1254;62600;-71
2023/02/09 03:28:16;;;;;;;52.60;26.50;;;;;;;-7.64;54.22;103215.35;108025;1254;61793;-71
2023/02/09 03:30:43;;;;;;;57.70;26.30;;;;;;;-7.62;53.97;103215.79;108011;1254;74697;-72
2023/02/09 03:33:25;;;;;;;51.50;25.60;;;;;;;-7.65;53.95;103217.65;107822;1256;71871;-72
2023/02/09 03:35:54;;;;;;;54.70;25.80;;;;;;;-7.70;54.02;103218.41;108023;1254;73715;-72
2023/02/09 03:38:21;;;;;;;56.20;27.00;;;;;;;-7.81;54.04;103213.22;108075;1254;60226;-72
2023/02/09 03:40:49;;;;;;;55.50;27.20;;;;;;;-7.88;54.29;103216.63;108108;1257;60386;-73
2023/02/09 03:43:16;;;;;;;50.40;25.50;;;;;;;-7.90;54.16;103211.91;108045;1254;74533;-72
2023/02/09 03:45:43;;;;;;;58.60;27.70;;;;;;;-7.95;54.16;103206.61;108035;1254;73117;-72
2023/02/09 03:48:10;;;;;;;60.40;28.10;;;;;;;-7.99;54.41;103205.42;108040;1257;73403;-72
2023/02/09 03:50:37;;;;;;;51.30;25.80;;;;;;;-7.94;54.47;103208.80;108031;1254;62206;-72
2023/02/09 03:53:05;;;;;;;53.70;26.40;;;;;;;-7.89;54.44;103208.55;108085;1254;61364;-72
2023/02/09 03:55:32;;;;;;;52.90;25.30;;;;;;;-7.85;54.31;103207.51;108063;1254;75050;-72
2023/02/09 03:57:59;;;;;;;52.50;25.80;;;;;;;-7.81;54.42;103208.70;108017;1254;72146;-72
2023/02/09 04:00:26;;;;;;;45.50;23.90;;;;;;;-7.76;54.24;103208.87;108042;1254;72973;-71
2023/02/09 04:02:53;;;;;;;54.00;26.40;;;;;;;-7.76;54.14;103210.93;108009;1254;60967;-72
2023/02/09 04:05:21;;;;;;;48.70;24.10;;;;;;;-7.82;54.32;103212.04;108125;1254;60361;-72
2023/02/09 04:07:55;;;;;;;48.00;24.10;;;;;;;-7.89;54.15;103212.05;108015;1258;74009;-72
2023/02/09 04:10:21;;;;;;;47.80;24.80;;;;;;;-7.95;54.14;103215.27;108037;1254;72942;-73
2023/02/09 04:12:49;;;;;;;52.80;25.00;;;;;;;-8.01;54.06;103216.58;108075;1254;73698;-72
2023/02/09 04:15:17;;;;;;;52.90;23.70;;;;;;;-8.08;54.43;103215.67;108006;1254;63144;-71
2023/02/09 04:17:44;;;;;;;50.50;24.90;;;;;;;-8.14;54.16;103215.95;108047;1254;60410;-72
2023/02/09 04:20:11;;;;;;;49.70;25.30;;;;;;;-8.14;54.17;103216.77;108032;1254;72927;-71
2023/02/09 04:22:38;;;;;;;53.70;25.50;;;;;;;-8.09;54.18;103218.85;108083;1254;72645;-72
2023/02/09 04:25:06;;;;;;;55.10;26.40;;;;;;;-8.00;54.08;103216.18;108014;1254;72165;-72
2023/02/09 04:27:33;;;;;;;49.90;26.50;;;;;;;-7.93;54.34;103209.64;107994;1254;61229;-71
2023/02/09 04:30:00;;;;;;;53.60;25.40;;;;;;;-7.91;54.06;103206.42;108043;1254;60347;-72
2023/02/09 04:32:27;;;;;;;51.00;24.30;;;;;;;-7.87;54.08;103208.63;108051;1254;74176;-72
2023/02/09 04:34:54;;;;;;;47.40;23.80;;;;;;;-7.80;54.04;103210.59;107981;1257;73851;-71
2023/02/09 04:37:21;;;;;;;48.60;24.60;;;;;;;-7.77;54.07;103205.61;108062;1254;73753;-73
2023/02/09 04:39:48;;;;;;;52.90;25.60;;;;;;;-7.70;54.15;103204.40;108037;1254;62582;-71
2023/02/09 04:42:14;;;;;;;53.00;25.30;;;;;;;-7.64;54.10;103208.97;108067;1254;60427;-72
2023/02/09 04:44:42;;;;;;;48.30;23.70;;;;;;;-7.66;54.03;103204.58;107990;1254;74663;-73
2023/02/09 04:47:09;;;;;;;51.60;25.60;;;;;;;-7.71;54.07;103199.96;108089;1253;73968;-72
2023/02/09 04:49:36;;;;;;;52.70;25.70;;;;;;;-7.73;53.98;103195.91;108077;1257;72702;-71
2023/02/09 04:52:03;;;;;;;50.70;24.70;;;;;;;-7.69;53.91;103190.02;108072;1254;62613;-71
2023/02/09 04:54:30;;;;;;;49.00;23.70;;;;;;;-7.63;53.92;103186.59;108089;1254;61874;-72
2023/02/09 04:59:44;;;;;;;51.70;24.90;;;;;;;-7.51;53.78;103178.93;108018;1254;71773;-72
2023/02/09 05:02:11;;;;;;;52.50;24.40;;;;;;;-7.52;53.85;103177.05;108081;1254;73189;-70
2023/02/09 05:04:38;;;;;;;55.00;25.00;;;;;;;-7.51;53.68;103176.32;108049;1254;61010;-71
2023/02/09 05:07:09;;;;;;;52.50;24.80;;;;;;;-7.52;53.55;103174.63;107982;1254;60322;-72
2023/02/09 05:09:36;;;;;;;49.50;24.20;;;;;;;-7.60;53.41;103170.71;108015;1254;74000;-72
2023/02/09 05:12:03;;;;;;;58.80;26.80;;;;;;;-7.72;53.31;103169.91;108004;1254;72202;-74
2023/02/09 05:14:31;;;;;;;65.00;28.80;;;;;;;-7.83;53.63;103176.66;108031;1257;71571;-71
2023/02/09 05:16:58;;;;;;;53.70;26.50;;;;;;;-7.95;53.69;103178.59;108032;1254;62350;-72
2023/02/09 05:19:25;;;;;;;52.90;25.10;;;;;;;-8.07;53.91;103174.46;108119;1254;61295;-72
2023/02/09 05:21:52;;;;;;;62.90;28.40;;;;;;;-8.14;54.11;103174.97;108017;1254;71884;-73
2023/02/09 05:24:19;;;;;;;57.40;26.60;;;;;;;-8.16;54.18;103171.63;108101;1254;72904;-72
2023/02/09 05:26:45;;;;;;;59.90;29.40;;;;;;;-8.16;54.39;103174.90;108088;1254;72550;-71
2023/02/09 05:29:12;;;;;;;67.80;30.70;;;;;;;-8.17;54.38;103174.61;108011;1257;61063;-72
2023/02/09 05:31:39;;;;;;;67.60;31.00;;;;;;;-8.15;54.64;103179.02;108028;1254;61163;-72
2023/02/09 05:34:06;;;;;;;64.60;30.70;;;;;;;-8.10;54.52;103177.70;108103;1254;72727;-73
2023/02/09 05:36:34;;;;;;;59.30;29.90;;;;;;;-8.01;54.60;103174.55;108068;1254;73367;-71
2023/02/09 05:39:01;;;;;;;64.70;30.80;;;;;;;-7.88;54.79;103174.64;108040;1254;72850;-72
2023/02/09 05:44:13;;;;;;;66.70;30.90;;;;;;;-7.59;54.59;103160.59;108039;1254;61217;-72
2023/02/09 05:46:40;;;;;;;61.90;29.10;;;;;;;-7.51;54.58;103160.25;108039;1254;73372;-74
2023/02/09 05:49:08;;;;;;;65.70;31.00;;;;;;;-7.45;54.85;103161.14;108091;1257;72409;-72
2023/02/09 05:51:35;;;;;;;63.10;30.70;;;;;;;-7.37;54.87;103159.39;108015;1254;74219;-72
2023/02/09 05:54:02;;;;;;;67.20;32.20;;;;;;;-7.28;54.95;103155.27;108094;1254;60316;-72
2023/02/09 05:56:29;;;;;;;66.10;31.30;;;;;;;-7.17;54.97;103150.25;108098;1254;60963;-73
2023/02/09 05:58:56;;;;;;;66.50;33.00;;;;;;;-7.04;54.92;103145.94;108067;1254;71727;-72
2023/02/09 06:01:23;;;;;;;68.10;32.60;;;;;;;-6.89;54.85;103148.27;108038;1254;72193;-72
2023/02/09 06:03:50;;;;;;;66.40;33.40;;;;;;;-6.77;54.79;103148.88;108010;1254;71877;-73
2023/02/09 06:06:17;;;;;;;68.90;32.60;;;;;;;-6.69;54.69;103147.80;108025;1254;61938;-71
2023/02/09 06:08:44;;;;;;;64.40;32.20;;;;;;;-6.65;54.54;103149.11;108040;1253;61241;-73
2023/02/09 06:11:14;;;;;;;57.40;30.80;;;;;;;-6.65;54.96;103147.38;108046;1254;73594;-73
2023/02/09 06:13:40;;;;;;;62.10;31.60;;;;;;;-6.62;55.07;103145.14;107912;1254;194049;-71
2023/02/09 06:16:08;;;;;;;72.00;33.30;;;;;;;-6.57;55.07;103148.36;108011;1256;73039;-72
2023/02/09 06:18:35;;;;;;;60.70;31.30;;;;;;;-6.50;55.31;103150.05;108044;1254;60434;-72
2023/02/09 06:21:02;;;;;;;67.20;31.50;;;;;;;-6.38;55.22;103148.05;108046;1254;61512;-73
2023/02/09 06:23:29;;;;;;;72.60;34.70;;;;;;;-6.25;55.35;103143.14;108090;1254;73823;-72
2023/02/09 06:25:56;;;;;;;67.70;34.80;;;;;;;-6.10;55.45;103136.45;108042;1254;73024;-73
2023/02/09 06:28:23;;;;;;;69.10;34.80;;;;;;;-5.95;55.46;103137.17;108085;1254;73528;-73
2023/02/09 06:30:51;;;;;;;74.50;37.30;;;;;;;-5.79;55.75;103139.55;108050;1254;63149;-72
2023/02/09 06:33:19;;;;;;;76.70;37.70;;;;;;;-5.60;55.79;103141.63;108003;1254;59540;-71
2023/02/09 06:35:49;;;;;;;74.00;38.00;;;;;;;-5.44;55.82;103148.13;108027;1254;74009;-71
2023/02/09 06:38:18;;;;;;;64.90;34.10;;;;;;;-5.28;56.18;103147.55;108020;1254;72030;-72
2023/02/09 06:40:46;;;;;;;61.90;31.80;;;;;;;-5.09;56.27;103145.62;108009;1254;74487;-72
2023/02/09 06:43:13;;;;;;;60.70;30.40;;;;;;;-4.85;56.35;103147.80;107990;1254;62428;-72
2023/02/09 06:45:40;;;;;;;67.20;32.50;;;;;;;-4.57;56.46;103144.34;108030;1254;60329;-72
2023/02/09 06:48:07;;;;;;;63.40;32.20;;;;;;;-4.26;56.62;103142.45;107929;1253;72703;-70
2023/02/09 06:50:35;;;;;;;61.30;30.20;;;;;;;-3.96;56.63;103143.01;108005;1254;71481;-70
2023/02/09 06:53:02;;;;;;;65.90;33.80;;;;;;;-3.69;56.57;103140.37;108048;1254;73915;-71
2023/02/09 06:55:29;;;;;;;71.70;35.00;;;;;;;-3.41;56.57;103140.11;108061;1254;60278;-71
2023/02/09 06:57:56;;;;;;;78.30;38.80;;;;;;;-3.18;56.45;103144.44;108030;1254;60514;-72
2023/02/09 07:00:23;;;;;;;88.50;42.60;;;;;;;-2.97;56.20;103136.98;107935;1257;72918;-71
2023/02/09 07:02:51;;;;;;;88.60;41.70;;;;;;;-2.83;56.04;103133.97;108054;1254;72471;-70
2023/02/09 07:05:19;;;;;;;80.40;39.30;;;;;;;-2.70;55.99;103133.05;107968;1259;72741;-71
2023/02/09 07:07:46;;;;;;;74.80;37.50;;;;;;;-2.58;55.86;103133.10;108034;1254;60904;-70
2023/02/09 07:10:15;;;;;;;68.80;35.50;;;;;;;-2.44;55.83;103135.92;107972;1254;60363;-71
2023/02/09 07:12:42;;;;;;;64.30;32.20;;;;;;;-2.32;55.59;103133.00;107990;1257;71684;-71
2023/02/09 07:15:10;;;;;;;54.20;30.30;;;;;;;-2.21;55.36;103132.39;107944;1257;75871;-70
2023/02/09 07:17:38;;;;;;;48.20;26.90;;;;;;;-2.05;55.32;103132.44;107930;1257;73729;-70
2023/02/09 07:20:07;;;;;;;48.70;26.00;;;;;;;-1.89;55.12;103138.09;107958;1254;62655;-71
2023/02/09 07:22:34;;;;;;;45.10;25.40;;;;;;;-1.75;54.86;103135.00;108042;1254;61150;-71
2023/02/09 07:25:01;;;;;;;40.50;21.70;;;;;;;-1.62;54.66;103132.83;107978;1254;72873;-71
2023/02/09 07:27:28;;;;;;;46.00;25.30;;;;;;;-1.56;54.44;103134.48;108035;1254;73024;-71
2023/02/09 07:29:55;;;;;;;43.90;25.50;;;;;;;-1.52;54.42;103136.56;107941;1257;72758;-70
2023/02/09 07:32:23;;;;;;;47.70;26.00;;;;;;;-1.44;54.30;103138.82;107932;1254;61382;-72
2023/02/09 07:34:50;;;;;;;42.60;24.50;;;;;;;-1.32;54.37;103135.60;108011;1254;60243;-71
2023/02/09 07:37:17;;;;;;;42.00;23.30;;;;;;;-1.20;54.21;103131.58;108000;1254;73102;-72
2023/02/09 07:39:44;;;;;;;41.50;25.20;;;;;;;-1.06;53.95;103125.29;107989;1254;72478;-71
2023/02/09 07:42:11;;;;;;;43.80;25.40;;;;;;;-0.96;54.03;103119.29;108069;1254;72995;-70
2023/02/09 07:44:48;;;;;;;43.50;24.70;;;;;;;-0.85;53.54;103116.50;108008;1254;61963;-71
2023/02/09 07:47:15;;;;;;;42.20;24.80;;;;;;;-0.84;53.30;103118.15;108109;1254;61310;-71
2023/02/09 07:49:41;;;;;;;41.00;23.90;;;;;;;-0.78;53.21;103116.45;108053;1254;73952;-71
2023/02/09 07:52:08;;;;;;;43.20;25.10;;;;;;;-0.71;53.11;103115.02;108099;1253;72556;-70
2023/02/09 07:54:36;;;;;;;42.90;25.70;;;;;;;-0.68;53.10;103116.02;108063;1257;72978;-70
2023/02/09 07:57:03;;;;;;;43.80;25.40;;;;;;;-0.56;53.41;103113.35;108096;1254;61214;-70
2023/02/09 07:59:30;;;;;;;42.30;24.00;;;;;;;-0.38;53.29;103111.61;108022;1254;60305;-70
2023/02/09 08:01:57;;;;;;;42.40;25.20;;;;;;;-0.30;52.78;103109.89;107998;1254;73124;-71
2023/02/09 08:04:23;;;;;;;41.60;25.60;;;;;;;-0.36;52.62;103111.92;107985;1254;72046;-69
2023/02/09 08:06:52;;;;;;;40.70;24.80;;;;;;;-0.34;52.66;103108.84;108021;1254;72675;-71
2023/02/09 08:09:18;;;;;;;41.00;25.00;;;;;;;-0.16;52.85;103108.58;107910;1254;61018;-70
2023/02/09 08:12:01;;;;;;;44.00;24.40;;;;;;;-0.02;52.58;103109.08;108025;1254;63508;-69
2023/02/09 08:14:35;;;;;;;43.60;24.70;;;;;;;-0.02;52.00;103111.13;108042;1254;74001;-71
2023/02/09 08:17:20;;;;;;;40.40;23.20;;;;;;;0.04;52.07;103112.23;108059;1257;73844;-70
2023/02/09 08:20:14;;;;;;;40.00;23.60;;;;;;;0.18;51.90;103102.99;108028;1254;73228;-69
2023/02/09 08:22:45;;;;;;;44.20;25.20;;;;;;;0.30;51.74;103105.55;108050;1257;61683;-71
2023/02/09 08:25:18;;;;;;;39.10;25.10;;;;;;;0.49;51.77;103103.66;107896;1257;60351;-71
2023/02/09 08:27:45;;;;;;;42.10;25.20;;;;;;;0.66;51.57;103104.67;108013;1254;73418;-73
2023/02/09 08:30:13;;;;;;;41.90;24.30;;;;;;;0.82;51.46;103098.90;108053;1257;73956;-71
2023/02/09 08:32:40;;;;;;;39.90;24.10;;;;;;;0.98;51.10;103095.80;108080;1254;71178;-71
2023/02/09 08:35:07;;;;;;;40.90;24.40;;;;;;;1.16;50.87;103093.92;108047;1259;60328;-71
2023/02/09 08:37:35;;;;;;;41.20;24.80;;;;;;;1.29;50.53;103091.55;108085;1254;60317;-70
2023/02/09 08:40:02;;;;;;;44.20;25.50;;;;;;;1.42;50.11;103087.49;108035;1254;72929;-70
2023/02/09 08:42:30;;;;;;;42.00;25.50;;;;;;;1.56;49.80;103083.94;108044;1254;71778;-70
2023/02/09 08:44:57;;;;;;;42.50;25.40;;;;;;;1.70;49.77;103084.11;108057;1254;72712;-70
2023/02/09 08:47:24;;;;;;;38.70;24.00;;;;;;;1.80;49.46;103086.02;108025;1254;60384;-70
2023/02/09 08:49:51;;;;;;;41.90;24.40;;;;;;;1.85;48.84;103085.41;107974;1258;60521;-70
2023/02/09 08:52:18;;;;;;;40.60;23.30;;;;;;;1.93;48.33;103085.89;107975;1254;72960;-70
2023/02/09 08:54:45;;;;;;;43.50;25.10;;;;;;;1.87;48.19;103085.73;108093;1254;73372;-70
2023/02/09 08:57:12;;;;;;;40.20;23.30;;;;;;;1.86;47.90;103084.95;108071;1254;70677;-70
2023/02/09 08:59:39;;;;;;;42.20;23.80;;;;;;;1.81;47.68;103085.70;107978;1254;60335;-71
2023/02/09 09:02:06;;;;;;;38.60;23.80;;;;;;;1.82;47.78;103085.98;107968;1258;60261;-71
2023/02/09 09:04:33;;;;;;;43.40;25.70;;;;;;;1.88;47.72;103080.23;108054;1254;74795;-71
2023/02/09 09:07:00;;;;;;;44.00;26.20;;;;;;;1.96;47.70;103075.63;108039;1254;72319;-72
2023/02/09 09:09:26;;;;;;;40.00;23.20;;;;;;;2.02;47.38;103067.01;107979;1254;73991;-71
2023/02/09 09:11:53;;;;;;;38.80;23.60;;;;;;;2.04;47.24;103062.22;107931;1256;60294;-71
2023/02/09 09:14:21;;;;;;;41.50;25.40;;;;;;;2.04;46.99;103059.59;108042;1254;60634;-71
2023/02/09 09:16:48;;;;;;;44.30;26.50;;;;;;;2.07;47.17;103056.48;107965;1254;72584;-71
2023/02/09 09:19:15;;;;;;;42.60;25.10;;;;;;;2.16;47.21;103050.98;108044;1254;73948;-71
2023/02/09 09:21:44;;;;;;;38.40;24.00;;;;;;;2.20;46.83;103046.05;107905;1254;71605;-72
2023/02/09 09:24:12;;;;;;;41.50;25.00;;;;;;;2.11;46.76;103045.44;108028;1254;60594;-71
2023/02/09 09:26:39;;;;;;;38.70;23.70;;;;;;;2.05;46.95;103044.23;107968;1254;60328;-71
2023/02/09 09:29:06;;;;;;;41.60;25.70;;;;;;;2.08;47.17;103037.28;108046;1254;73221;-71
2023/02/09 09:31:33;;;;;;;39.90;25.50;;;;;;;2.17;47.15;103032.30;108011;1254;72093;-72
2023/02/09 09:34:02;;;;;;;35.60;23.80;;;;;;;2.19;47.02;103027.18;108031;1254;72919;-72
2023/02/09 09:36:29;;;;;;;39.70;25.50;;;;;;;2.22;47.04;103023.52;108006;1254;59567;-71
2023/02/09 09:38:57;;;;;;;37.70;23.60;;;;;;;2.32;47.11;103014.71;108077;1253;60513;-71
2023/02/09 09:41:33;;;;;;;37.20;22.60;;;;;;;2.43;47.06;103012.31;107998;1254;74194;-71
2023/02/09 09:44:00;;;;;;;40.50;24.90;;;;;;;2.51;46.63;103009.07;107912;1254;71933;-72
2023/02/09 09:46:47;;;;;;;36.10;22.80;;;;;;;2.52;46.77;103006.35;107997;1254;71770;-71
2023/02/09 09:49:23;;;;;;;35.50;22.10;;;;;;;2.54;46.91;103002.95;108041;1254;60290;-71
2023/02/09 09:52:11;;;;;;;36.80;22.50;;;;;;;2.60;46.74;102997.15;108000;1254;60309;-71
2023/02/09 09:54:39;;;;;;;34.60;21.20;;;;;;;2.63;46.95;102996.15;108023;1254;74818;-72
2023/02/09 09:57:18;;;;;;;37.90;20.70;;;;;;;2.66;46.16;102998.16;108089;1254;72211;-71
2023/02/09 09:59:45;;;;;;;32.90;20.60;;;;;;;2.62;46.22;102991.84;108034;1254;70269;-71
2023/02/09 10:02:31;;;;;;;32.60;20.50;;;;;;;2.65;46.10;102991.45;108050;1254;60386;-71
2023/02/09 10:05:20;;;;;;;33.50;21.20;;;;;;;2.71;46.01;102984.64;108014;1254;60450;-70
2023/02/09 10:08:30;;;;;;;34.40;21.40;;;;;;;2.77;45.92;102972.33;107989;1254;73768;-70
2023/02/09 10:11:35;;;;;;;31.90;19.70;;;;;;;2.82;45.91;102965.61;92850;1254;10002775;-71
2023/02/09 10:14:02;;;;;;;33.60;20.60;;;;;;;2.94;45.92;102961.56;107862;1254;60315;-70
2023/02/09 10:16:33;;;;;;;35.70;20.90;;;;;;;3.06;45.85;102961.10;107808;1254;73239;-70
2023/02/09 10:19:01;;;;;;;32.60;21.80;;;;;;;3.19;45.66;102957.17;107878;1254;72140;-70
2023/02/09 10:21:31;;;;;;;39.10;23.30;;;;;;;3.31;45.31;102951.63;107916;1254;76620;-70
2023/02/09 10:23:58;;;;;;;32.50;20.50;;;;;;;3.32;44.73;102944.33;107981;1254;60480;-69
2023/02/09 10:26:31;;;;;;;33.70;22.00;;;;;;;3.27;44.57;102939.64;108005;1254;59787;-70
2023/02/09 10:29:20;;;;;;;36.50;23.10;;;;;;;3.26;44.45;102934.13;108010;1254;74837;-69
2023/02/09 10:31:53;;;;;;;40.80;25.10;;;;;;;3.33;44.51;102934.32;107862;1257;72824;-69
2023/02/09 10:34:33;;;;;;;39.10;23.90;;;;;;;3.39;43.97;102929.18;107857;1254;72345;-69
2023/02/09 10:37:28;;;;;;;35.20;21.40;;;;;;;3.38;43.49;102927.82;107850;1260;60316;-70
2023/02/09 10:40:22;;;;;;;38.00;23.00;;;;;;;3.41;43.52;102923.71;107843;1254;59562;-70
2023/02/09 10:42:55;;;;;;;34.90;21.30;;;;;;;3.45;43.26;102922.24;107885;1254;72294;-69
2023/02/09 10:45:43;;;;;;;31.90;21.10;;;;;;;3.50;43.25;102920.14;109246;1254;72849;-70
2023/02/09 10:48:10;;;;;;;30.20;19.10;;;;;;;3.61;43.08;102918.89;109179;1255;72098;-69
2023/02/09 10:50:59;;;;;;;40.50;22.50;;;;;;;3.67;42.59;102914.41;109204;1254;58192;-70
2023/02/09 10:53:32;;;;;;;37.90;21.90;;;;;;;3.76;42.83;102909.98;109273;1255;60400;-69
2023/02/09 10:56:03;;;;;;;35.70;21.80;;;;;;;3.86;42.29;102902.12;107895;1254;74390;-69
2023/02/09 10:58:32;;;;;;;34.70;21.10;;;;;;;3.86;41.99;102899.11;107809;1254;72026;-69
2023/02/09 11:01:16;;;;;;;32.10;20.20;;;;;;;3.90;42.24;102894.67;107892;1254;70266;-69
2023/02/09 11:04:19;;;;;;;34.00;20.20;;;;;;;4.00;42.20;102895.04;107903;1259;60297;-70
2023/02/09 11:07:14;;;;;;;32.90;19.30;;;;;;;4.16;41.84;102896.09;107696;1254;60569;-70
2023/02/09 11:09:47;;;;;;;32.10;20.80;;;;;;;4.22;41.46;102884.33;107863;1254;74869;-70
2023/02/09 11:12:14;;;;;;;34.30;20.00;;;;;;;4.24;41.24;102884.63;107932;1257;71782;-69
2023/02/09 11:14:45;;;;;;;34.20;21.00;;;;;;;4.24;41.21;102878.31;107921;1259;73981;-71
2023/02/09 11:17:16;;;;;;;33.10;20.50;;;;;;;4.28;41.16;102868.75;107812;1254;60406;-70
2023/02/09 11:19:52;;;;;;;38.00;21.80;;;;;;;4.25;40.81;102866.39;107913;1254;61515;-68
2023/02/09 11:22:38;;;;;;;35.00;22.10;;;;;;;4.26;41.07;102860.46;107764;1254;73189;-70
2023/02/09 11:25:24;;;;;;;33.40;21.00;;;;;;;4.29;40.75;102861.05;107911;1254;71925;-70
2023/02/09 11:28:17;;;;;;;35.80;21.40;;;;;;;4.30;40.75;102857.64;107876;1254;71853;-70
2023/02/09 11:31:29;;;;;;;31.70;21.30;;;;;;;4.35;40.92;102853.37;107838;1254;59376;-68